sensor_id;sensor_type;location;lat;lon;timestamp;temperature;humidity
73576;DHT22;61859;49.204;8.140;2023-10-31T00:01:20;11.90;98.50
73576;DHT22;61859;49.204;8.140;2023-10-31T00:03:45;12.00;97.90
73576;DHT22;61859;49.204;8.140;2023-10-31T00:06:11;11.80;98.50
73576;DHT22;61859;49.204;8.140;2023-10-31T00:08:37;11.90;98.70
73576;DHT22;61859;49.204;8.140;2023-10-31T00:11:02;11.80;98.40
73576;DHT22;61859;49.204;8.140;2023-10-31T00:13:28;11.70;97.70
73576;DHT22;61859;49.204;8.140;2023-10-31T00:15:53;11.70;98.60
73576;DHT22;61859;49.204;8.140;2023-10-31T00:18:19;11.80;98.80
73576;DHT22;61859;49.204;8.140;2023-10-31T00:20:46;11.70;98.60
73576;DHT22;61859;49.204;8.140;2023-10-31T00:23:12;11.90;98.90
73576;DHT22;61859;49.204;8.140;2023-10-31T00:25:37;11.70;98.00
73576;DHT22;61859;49.204;8.140;2023-10-31T00:28:03;11.80;97.70
73576;DHT22;61859;49.204;8.140;2023-10-31T00:30:29;11.80;97.40
73576;DHT22;61859;49.204;8.140;2023-10-31T00:32:55;11.80;97.50
73576;DHT22;61859;49.204;8.140;2023-10-31T00:35:20;11.60;97.20
73576;DHT22;61859;49.204;8.140;2023-10-31T00:37:46;11.50;96.90
73576;DHT22;61859;49.204;8.140;2023-10-31T00:40:11;11.60;97.00
73576;DHT22;61859;49.204;8.140;2023-10-31T00:42:38;11.70;97.20
73576;DHT22;61859;49.204;8.140;2023-10-31T00:45:03;11.60;97.30
73576;DHT22;61859;49.204;8.140;2023-10-31T00:47:29;11.70;97.70
73576;DHT22;61859;49.204;8.140;2023-10-31T00:49:55;11.60;98.00
73576;DHT22;61859;49.204;8.140;2023-10-31T00:52:21;11.40;98.70
73576;DHT22;61859;49.204;8.140;2023-10-31T00:54:46;11.70;98.90
73576;DHT22;61859;49.204;8.140;2023-10-31T00:57:12;11.40;98.90
73576;DHT22;61859;49.204;8.140;2023-10-31T00:59:37;11.50;98.20
73576;DHT22;61859;49.204;8.140;2023-10-31T01:02:04;11.50;98.10
73576;DHT22;61859;49.204;8.140;2023-10-31T01:04:30;11.40;97.90
73576;DHT22;61859;49.204;8.140;2023-10-31T01:06:56;11.40;98.10
73576;DHT22;61859;49.204;8.140;2023-10-31T01:09:22;11.50;98.00
73576;DHT22;61859;49.204;8.140;2023-10-31T01:11:48;11.50;98.10
73576;DHT22;61859;49.204;8.140;2023-10-31T01:14:13;11.60;98.30
73576;DHT22;61859;49.204;8.140;2023-10-31T01:16:40;11.60;99.10
73576;DHT22;61859;49.204;8.140;2023-10-31T01:19:06;11.50;99.60
73576;DHT22;61859;49.204;8.140;2023-10-31T01:21:31;11.40;99.90
73576;DHT22;61859;49.204;8.140;2023-10-31T01:23:58;11.40;99.70
73576;DHT22;61859;49.204;8.140;2023-10-31T01:26:24;11.30;99.70
73576;DHT22;61859;49.204;8.140;2023-10-31T01:28:49;11.30;99.90
73576;DHT22;61859;49.204;8.140;2023-10-31T01:31:15;11.20;99.90
73576;DHT22;61859;49.204;8.140;2023-10-31T01:33:41;11.40;99.70
73576;DHT22;61859;49.204;8.140;2023-10-31T01:36:06;11.20;99.90
73576;DHT22;61859;49.204;8.140;2023-10-31T01:38:32;11.30;99.90
73576;DHT22;61859;49.204;8.140;2023-10-31T01:40:57;11.30;99.80
73576;DHT22;61859;49.204;8.140;2023-10-31T01:43:36;11.40;99.80
73576;DHT22;61859;49.204;8.140;2023-10-31T01:46:02;11.40;99.70
73576;DHT22;61859;49.204;8.140;2023-10-31T01:48:31;11.30;99.20
73576;DHT22;61859;49.204;8.140;2023-10-31T01:50:58;11.40;98.70
73576;DHT22;61859;49.204;8.140;2023-10-31T01:53:25;11.40;98.60
73576;DHT22;61859;49.204;8.140;2023-10-31T01:55:52;11.40;97.80
73576;DHT22;61859;49.204;8.140;2023-10-31T01:58:25;11.50;97.80
73576;DHT22;61859;49.204;8.140;2023-10-31T02:00:51;11.40;98.10
73576;DHT22;61859;49.204;8.140;2023-10-31T02:03:17;11.30;98.20
73576;DHT22;61859;49.204;8.140;2023-10-31T02:05:42;11.30;98.50
73576;DHT22;61859;49.204;8.140;2023-10-31T02:08:08;11.20;98.70
73576;DHT22;61859;49.204;8.140;2023-10-31T02:10:34;11.20;98.10
73576;DHT22;61859;49.204;8.140;2023-10-31T02:13:13;11.20;97.80
73576;DHT22;61859;49.204;8.140;2023-10-31T02:15:39;11.30;97.50
73576;DHT22;61859;49.204;8.140;2023-10-31T02:18:05;11.30;97.40
73576;DHT22;61859;49.204;8.140;2023-10-31T02:20:31;11.20;97.40
73576;DHT22;61859;49.204;8.140;2023-10-31T02:22:57;11.50;97.30
73576;DHT22;61859;49.204;8.140;2023-10-31T02:25:22;11.40;97.10
73576;DHT22;61859;49.204;8.140;2023-10-31T02:27:48;11.50;97.10
73576;DHT22;61859;49.204;8.140;2023-10-31T02:30:13;11.50;97.30
73576;DHT22;61859;49.204;8.140;2023-10-31T02:32:40;11.50;96.80
73576;DHT22;61859;49.204;8.140;2023-10-31T02:35:06;11.40;97.30
73576;DHT22;61859;49.204;8.140;2023-10-31T02:37:32;11.40;96.90
73576;DHT22;61859;49.204;8.140;2023-10-31T02:39:58;11.50;96.60
73576;DHT22;61859;49.204;8.140;2023-10-31T02:42:25;11.50;96.30
73576;DHT22;61859;49.204;8.140;2023-10-31T02:44:50;11.40;97.00
73576;DHT22;61859;49.204;8.140;2023-10-31T02:47:16;11.40;96.90
73576;DHT22;61859;49.204;8.140;2023-10-31T02:49:41;11.30;97.20
73576;DHT22;61859;49.204;8.140;2023-10-31T02:52:07;11.30;97.50
73576;DHT22;61859;49.204;8.140;2023-10-31T02:54:32;11.40;96.90
73576;DHT22;61859;49.204;8.140;2023-10-31T02:56:58;11.40;96.60
73576;DHT22;61859;49.204;8.140;2023-10-31T02:59:24;11.40;96.50
73576;DHT22;61859;49.204;8.140;2023-10-31T03:01:50;11.50;96.80
73576;DHT22;61859;49.204;8.140;2023-10-31T03:04:15;11.40;96.20
73576;DHT22;61859;49.204;8.140;2023-10-31T03:06:41;11.40;96.20
73576;DHT22;61859;49.204;8.140;2023-10-31T03:09:07;11.40;95.80
73576;DHT22;61859;49.204;8.140;2023-10-31T03:11:33;11.50;95.80
73576;DHT22;61859;49.204;8.140;2023-10-31T03:13:59;11.60;96.00
73576;DHT22;61859;49.204;8.140;2023-10-31T03:16:25;11.50;96.50
73576;DHT22;61859;49.204;8.140;2023-10-31T03:18:50;11.40;96.70
73576;DHT22;61859;49.204;8.140;2023-10-31T03:21:16;11.30;97.20
73576;DHT22;61859;49.204;8.140;2023-10-31T03:23:46;11.30;97.60
73576;DHT22;61859;49.204;8.140;2023-10-31T03:26:12;11.30;98.00
73576;DHT22;61859;49.204;8.140;2023-10-31T03:28:37;11.30;98.30
73576;DHT22;61859;49.204;8.140;2023-10-31T03:31:03;11.30;98.50
73576;DHT22;61859;49.204;8.140;2023-10-31T03:33:29;11.30;98.80
73576;DHT22;61859;49.204;8.140;2023-10-31T03:35:54;11.30;98.60
73576;DHT22;61859;49.204;8.140;2023-10-31T03:38:20;11.20;98.50
73576;DHT22;61859;49.204;8.140;2023-10-31T03:40:45;11.40;98.70
73576;DHT22;61859;49.204;8.140;2023-10-31T03:43:11;11.30;98.40
73576;DHT22;61859;49.204;8.140;2023-10-31T03:45:36;11.20;98.90
73576;DHT22;61859;49.204;8.140;2023-10-31T03:48:02;11.20;98.60
73576;DHT22;61859;49.204;8.140;2023-10-31T03:50:28;11.20;98.40
73576;DHT22;61859;49.204;8.140;2023-10-31T03:52:53;11.20;98.60
73576;DHT22;61859;49.204;8.140;2023-10-31T03:55:19;11.20;98.40
73576;DHT22;61859;49.204;8.140;2023-10-31T03:57:45;11.30;98.80
73576;DHT22;61859;49.204;8.140;2023-10-31T04:00:11;11.20;98.50
73576;DHT22;61859;49.204;8.140;2023-10-31T04:02:37;11.10;98.40
73576;DHT22;61859;49.204;8.140;2023-10-31T04:05:03;11.10;98.60
73576;DHT22;61859;49.204;8.140;2023-10-31T04:07:28;11.20;98.80
73576;DHT22;61859;49.204;8.140;2023-10-31T04:09:54;11.20;98.50
73576;DHT22;61859;49.204;8.140;2023-10-31T04:12:20;11.20;98.70
73576;DHT22;61859;49.204;8.140;2023-10-31T04:14:45;11.20;99.10
73576;DHT22;61859;49.204;8.140;2023-10-31T04:17:11;11.10;98.90
73576;DHT22;61859;49.204;8.140;2023-10-31T04:19:36;11.10;98.60
73576;DHT22;61859;49.204;8.140;2023-10-31T04:22:02;11.10;98.80
73576;DHT22;61859;49.204;8.140;2023-10-31T04:24:28;11.20;98.90
73576;DHT22;61859;49.204;8.140;2023-10-31T04:26:53;11.10;98.80
73576;DHT22;61859;49.204;8.140;2023-10-31T04:29:19;11.20;98.80
73576;DHT22;61859;49.204;8.140;2023-10-31T04:31:44;11.10;98.50
73576;DHT22;61859;49.204;8.140;2023-10-31T04:34:10;11.10;98.80
73576;DHT22;61859;49.204;8.140;2023-10-31T04:36:36;11.10;98.90
73576;DHT22;61859;49.204;8.140;2023-10-31T04:39:01;11.10;98.80
73576;DHT22;61859;49.204;8.140;2023-10-31T04:41:27;11.20;98.80
73576;DHT22;61859;49.204;8.140;2023-10-31T04:43:52;11.10;98.80
73576;DHT22;61859;49.204;8.140;2023-10-31T04:46:18;11.10;98.70
73576;DHT22;61859;49.204;8.140;2023-10-31T04:48:43;11.10;98.80
73576;DHT22;61859;49.204;8.140;2023-10-31T04:51:09;11.10;98.90
73576;DHT22;61859;49.204;8.140;2023-10-31T04:53:34;11.20;99.60
73576;DHT22;61859;49.204;8.140;2023-10-31T04:56:00;11.00;99.90
73576;DHT22;61859;49.204;8.140;2023-10-31T04:58:26;10.90;99.90
73576;DHT22;61859;49.204;8.140;2023-10-31T05:00:51;10.90;99.90
73576;DHT22;61859;49.204;8.140;2023-10-31T05:03:17;10.80;99.90
73576;DHT22;61859;49.204;8.140;2023-10-31T05:05:43;10.70;99.90
73576;DHT22;61859;49.204;8.140;2023-10-31T05:08:08;10.70;99.90
73576;DHT22;61859;49.204;8.140;2023-10-31T05:10:34;10.60;99.90
73576;DHT22;61859;49.204;8.140;2023-10-31T05:13:01;10.50;99.90
73576;DHT22;61859;49.204;8.140;2023-10-31T05:15:28;10.50;99.90
73576;DHT22;61859;49.204;8.140;2023-10-31T05:17:53;10.60;99.90
73576;DHT22;61859;49.204;8.140;2023-10-31T05:20:19;10.50;99.90
73576;DHT22;61859;49.204;8.140;2023-10-31T05:22:45;10.50;99.90
73576;DHT22;61859;49.204;8.140;2023-10-31T05:25:11;10.50;99.90
73576;DHT22;61859;49.204;8.140;2023-10-31T05:27:36;10.40;99.90
73576;DHT22;61859;49.204;8.140;2023-10-31T05:30:02;10.50;99.90
73576;DHT22;61859;49.204;8.140;2023-10-31T05:32:28;10.50;99.90
73576;DHT22;61859;49.204;8.140;2023-10-31T05:34:54;10.50;99.90
73576;DHT22;61859;49.204;8.140;2023-10-31T05:37:19;10.50;99.90
73576;DHT22;61859;49.204;8.140;2023-10-31T05:39:44;10.40;99.90
73576;DHT22;61859;49.204;8.140;2023-10-31T05:42:10;10.50;99.90
73576;DHT22;61859;49.204;8.140;2023-10-31T05:44:35;10.50;99.90
73576;DHT22;61859;49.204;8.140;2023-10-31T05:47:01;10.50;99.90
73576;DHT22;61859;49.204;8.140;2023-10-31T05:49:26;10.50;99.90
73576;DHT22;61859;49.204;8.140;2023-10-31T05:51:52;10.50;99.90
73576;DHT22;61859;49.204;8.140;2023-10-31T05:54:18;10.50;99.90
73576;DHT22;61859;49.204;8.140;2023-10-31T05:56:43;10.50;99.90
73576;DHT22;61859;49.204;8.140;2023-10-31T05:59:10;10.40;99.90
73576;DHT22;61859;49.204;8.140;2023-10-31T06:01:36;10.40;99.90
73576;DHT22;61859;49.204;8.140;2023-10-31T06:04:02;10.40;99.90
73576;DHT22;61859;49.204;8.140;2023-10-31T06:06:28;10.30;99.90
73576;DHT22;61859;49.204;8.140;2023-10-31T06:08:53;10.40;99.90
73576;DHT22;61859;49.204;8.140;2023-10-31T06:11:19;10.30;99.90
73576;DHT22;61859;49.204;8.140;2023-10-31T06:13:44;10.40;99.90
73576;DHT22;61859;49.204;8.140;2023-10-31T06:16:10;10.40;99.90
73576;DHT22;61859;49.204;8.140;2023-10-31T06:18:37;10.40;99.90
73576;DHT22;61859;49.204;8.140;2023-10-31T06:21:03;10.30;99.90
73576;DHT22;61859;49.204;8.140;2023-10-31T06:23:28;10.40;99.90
73576;DHT22;61859;49.204;8.140;2023-10-31T06:25:54;10.30;99.90
73576;DHT22;61859;49.204;8.140;2023-10-31T06:28:19;10.30;99.90
73576;DHT22;61859;49.204;8.140;2023-10-31T06:30:45;10.30;99.90
73576;DHT22;61859;49.204;8.140;2023-10-31T06:33:10;10.40;99.90
73576;DHT22;61859;49.204;8.140;2023-10-31T06:35:37;10.30;99.90
73576;DHT22;61859;49.204;8.140;2023-10-31T06:38:02;10.40;99.90
73576;DHT22;61859;49.204;8.140;2023-10-31T06:40:28;10.30;99.90
73576;DHT22;61859;49.204;8.140;2023-10-31T06:42:53;10.30;99.90
73576;DHT22;61859;49.204;8.140;2023-10-31T06:45:19;10.40;99.90
73576;DHT22;61859;49.204;8.140;2023-10-31T06:47:45;10.40;99.90
73576;DHT22;61859;49.204;8.140;2023-10-31T06:50:10;10.40;99.90
73576;DHT22;61859;49.204;8.140;2023-10-31T06:52:36;10.40;99.90
73576;DHT22;61859;49.204;8.140;2023-10-31T06:55:01;10.40;99.90
73576;DHT22;61859;49.204;8.140;2023-10-31T06:57:27;10.40;99.90
73576;DHT22;61859;49.204;8.140;2023-10-31T06:59:53;10.40;99.90
73576;DHT22;61859;49.204;8.140;2023-10-31T07:02:19;10.40;99.90
73576;DHT22;61859;49.204;8.140;2023-10-31T07:04:44;10.40;99.90
73576;DHT22;61859;49.204;8.140;2023-10-31T07:07:10;10.40;99.90
73576;DHT22;61859;49.204;8.140;2023-10-31T07:09:35;10.50;99.90
73576;DHT22;61859;49.204;8.140;2023-10-31T07:12:01;10.50;99.90
73576;DHT22;61859;49.204;8.140;2023-10-31T07:14:27;10.50;99.90
73576;DHT22;61859;49.204;8.140;2023-10-31T07:16:53;10.50;99.90
73576;DHT22;61859;49.204;8.140;2023-10-31T07:19:18;10.60;99.90
73576;DHT22;61859;49.204;8.140;2023-10-31T07:21:44;10.60;99.90
73576;DHT22;61859;49.204;8.140;2023-10-31T07:24:09;10.50;99.90
73576;DHT22;61859;49.204;8.140;2023-10-31T07:26:35;10.60;99.90
73576;DHT22;61859;49.204;8.140;2023-10-31T07:29:01;10.70;99.90
73576;DHT22;61859;49.204;8.140;2023-10-31T07:31:26;10.70;99.90
73576;DHT22;61859;49.204;8.140;2023-10-31T07:33:52;10.70;99.90
73576;DHT22;61859;49.204;8.140;2023-10-31T07:36:17;10.80;99.90
73576;DHT22;61859;49.204;8.140;2023-10-31T07:38:43;10.80;98.80
73576;DHT22;61859;49.204;8.140;2023-10-31T07:41:08;10.90;98.60
73576;DHT22;61859;49.204;8.140;2023-10-31T07:43:34;11.00;98.90
73576;DHT22;61859;49.204;8.140;2023-10-31T07:46:00;11.10;98.40
73576;DHT22;61859;49.204;8.140;2023-10-31T07:48:25;11.20;97.80
73576;DHT22;61859;49.204;8.140;2023-10-31T07:50:51;11.40;97.70
73576;DHT22;61859;49.204;8.140;2023-10-31T07:53:16;11.50;97.90
73576;DHT22;61859;49.204;8.140;2023-10-31T07:55:42;11.60;97.20
73576;DHT22;61859;49.204;8.140;2023-10-31T07:58:08;11.80;96.40
73576;DHT22;61859;49.204;8.140;2023-10-31T08:00:35;11.70;95.50
73576;DHT22;61859;49.204;8.140;2023-10-31T08:03:01;11.70;95.90
73576;DHT22;61859;49.204;8.140;2023-10-31T08:05:27;11.90;96.20
73576;DHT22;61859;49.204;8.140;2023-10-31T08:07:52;12.00;95.40
73576;DHT22;61859;49.204;8.140;2023-10-31T08:10:18;12.10;95.30
73576;DHT22;61859;49.204;8.140;2023-10-31T08:12:44;12.10;95.10
73576;DHT22;61859;49.204;8.140;2023-10-31T08:15:10;12.40;94.60
73576;DHT22;61859;49.204;8.140;2023-10-31T08:17:35;12.50;93.40
73576;DHT22;61859;49.204;8.140;2023-10-31T08:20:01;12.40;93.40
73576;DHT22;61859;49.204;8.140;2023-10-31T08:22:29;12.40;92.60
73576;DHT22;61859;49.204;8.140;2023-10-31T08:24:54;12.30;92.70
73576;DHT22;61859;49.204;8.140;2023-10-31T08:27:20;12.50;93.90
73576;DHT22;61859;49.204;8.140;2023-10-31T08:29:45;12.50;92.70
73576;DHT22;61859;49.204;8.140;2023-10-31T08:32:11;12.60;92.80
73576;DHT22;61859;49.204;8.140;2023-10-31T08:34:36;12.70;92.70
73576;DHT22;61859;49.204;8.140;2023-10-31T08:37:02;12.80;91.90
73576;DHT22;61859;49.204;8.140;2023-10-31T08:39:28;12.80;91.50
73576;DHT22;61859;49.204;8.140;2023-10-31T08:41:55;12.90;91.10
73576;DHT22;61859;49.204;8.140;2023-10-31T08:44:21;13.00;90.70
73576;DHT22;61859;49.204;8.140;2023-10-31T08:46:46;12.90;90.90
73576;DHT22;61859;49.204;8.140;2023-10-31T08:49:13;12.90;91.00
73576;DHT22;61859;49.204;8.140;2023-10-31T08:51:39;13.10;91.20
73576;DHT22;61859;49.204;8.140;2023-10-31T08:54:05;13.10;89.30
73576;DHT22;61859;49.204;8.140;2023-10-31T08:56:30;13.00;89.30
73576;DHT22;61859;49.204;8.140;2023-10-31T08:58:56;13.00;89.50
73576;DHT22;61859;49.204;8.140;2023-10-31T09:01:22;13.10;89.50
73576;DHT22;61859;49.204;8.140;2023-10-31T09:03:47;13.10;89.30
73576;DHT22;61859;49.204;8.140;2023-10-31T09:06:13;13.20;89.10
73576;DHT22;61859;49.204;8.140;2023-10-31T09:08:39;13.30;88.80
73576;DHT22;61859;49.204;8.140;2023-10-31T09:11:05;13.50;88.70
73576;DHT22;61859;49.204;8.140;2023-10-31T09:13:31;13.40;88.10
73576;DHT22;61859;49.204;8.140;2023-10-31T09:15:58;13.40;88.30
73576;DHT22;61859;49.204;8.140;2023-10-31T09:18:24;13.70;87.90
73576;DHT22;61859;49.204;8.140;2023-10-31T09:20:50;14.00;87.40
73576;DHT22;61859;49.204;8.140;2023-10-31T09:23:16;14.50;84.70
73576;DHT22;61859;49.204;8.140;2023-10-31T09:25:45;14.60;83.10
73576;DHT22;61859;49.204;8.140;2023-10-31T09:28:11;14.50;83.30
73576;DHT22;61859;49.204;8.140;2023-10-31T09:30:37;14.50;84.10
73576;DHT22;61859;49.204;8.140;2023-10-31T09:33:02;14.50;84.50
73576;DHT22;61859;49.204;8.140;2023-10-31T09:35:28;14.50;84.10
73576;DHT22;61859;49.204;8.140;2023-10-31T09:37:54;14.50;84.50
73576;DHT22;61859;49.204;8.140;2023-10-31T09:40:20;14.60;83.80
73576;DHT22;61859;49.204;8.140;2023-10-31T09:42:47;14.80;82.70
73576;DHT22;61859;49.204;8.140;2023-10-31T09:45:13;14.90;83.00
73576;DHT22;61859;49.204;8.140;2023-10-31T09:47:39;14.80;82.00
73576;DHT22;61859;49.204;8.140;2023-10-31T09:50:06;14.40;83.40
73576;DHT22;61859;49.204;8.140;2023-10-31T09:52:33;14.10;84.60
73576;DHT22;61859;49.204;8.140;2023-10-31T09:55:01;14.00;85.20
73576;DHT22;61859;49.204;8.140;2023-10-31T09:57:26;13.90;84.60
73576;DHT22;61859;49.204;8.140;2023-10-31T09:59:52;14.00;86.00
73576;DHT22;61859;49.204;8.140;2023-10-31T10:02:18;14.10;85.20
73576;DHT22;61859;49.204;8.140;2023-10-31T10:04:43;14.00;86.10
73576;DHT22;61859;49.204;8.140;2023-10-31T10:07:13;14.00;85.60
73576;DHT22;61859;49.204;8.140;2023-10-31T10:09:40;14.00;86.20
73576;DHT22;61859;49.204;8.140;2023-10-31T10:12:07;13.90;86.10
73576;DHT22;61859;49.204;8.140;2023-10-31T10:14:32;13.90;86.10
73576;DHT22;61859;49.204;8.140;2023-10-31T10:16:58;13.80;86.40
73576;DHT22;61859;49.204;8.140;2023-10-31T10:19:24;13.80;86.50
73576;DHT22;61859;49.204;8.140;2023-10-31T10:21:57;13.80;86.00
73576;DHT22;61859;49.204;8.140;2023-10-31T10:24:24;14.00;86.50
73576;DHT22;61859;49.204;8.140;2023-10-31T10:26:50;14.10;85.90
73576;DHT22;61859;49.204;8.140;2023-10-31T10:29:16;14.10;86.10
73576;DHT22;61859;49.204;8.140;2023-10-31T10:31:42;13.90;86.50
73576;DHT22;61859;49.204;8.140;2023-10-31T10:34:08;13.90;87.10
73576;DHT22;61859;49.204;8.140;2023-10-31T10:36:34;13.70;87.10
73576;DHT22;61859;49.204;8.140;2023-10-31T10:39:00;13.60;87.90
73576;DHT22;61859;49.204;8.140;2023-10-31T10:41:27;13.70;88.50
73576;DHT22;61859;49.204;8.140;2023-10-31T10:44:06;13.80;88.10
73576;DHT22;61859;49.204;8.140;2023-10-31T10:46:34;13.70;87.80
73576;DHT22;61859;49.204;8.140;2023-10-31T10:49:03;13.90;88.30
73576;DHT22;61859;49.204;8.140;2023-10-31T10:54:08;14.10;87.00
73576;DHT22;61859;49.204;8.140;2023-10-31T10:56:39;14.00;86.90
73576;DHT22;61859;49.204;8.140;2023-10-31T10:59:12;14.10;87.00
73576;DHT22;61859;49.204;8.140;2023-10-31T11:01:41;14.30;86.60
73576;DHT22;61859;49.204;8.140;2023-10-31T11:04:07;14.40;86.70
73576;DHT22;61859;49.204;8.140;2023-10-31T11:06:34;14.40;85.40
73576;DHT22;61859;49.204;8.140;2023-10-31T11:09:00;14.30;85.40
73576;DHT22;61859;49.204;8.140;2023-10-31T11:11:27;14.20;85.40
73576;DHT22;61859;49.204;8.140;2023-10-31T11:13:53;14.00;86.30
73576;DHT22;61859;49.204;8.140;2023-10-31T11:16:32;14.00;86.40
73576;DHT22;61859;49.204;8.140;2023-10-31T11:18:59;14.20;85.80
73576;DHT22;61859;49.204;8.140;2023-10-31T11:21:28;14.30;85.30
73576;DHT22;61859;49.204;8.140;2023-10-31T11:23:58;14.40;85.80
73576;DHT22;61859;49.204;8.140;2023-10-31T11:26:30;14.60;84.50
73576;DHT22;61859;49.204;8.140;2023-10-31T11:29:05;14.60;84.80
73576;DHT22;61859;49.204;8.140;2023-10-31T11:31:32;14.70;83.30
73576;DHT22;61859;49.204;8.140;2023-10-31T11:34:01;14.60;84.70
73576;DHT22;61859;49.204;8.140;2023-10-31T11:36:30;14.60;83.80
73576;DHT22;61859;49.204;8.140;2023-10-31T11:39:20;14.40;83.20
73576;DHT22;61859;49.204;8.140;2023-10-31T11:41:55;14.40;83.90
73576;DHT22;61859;49.204;8.140;2023-10-31T11:44:27;14.40;83.90
73576;DHT22;61859;49.204;8.140;2023-10-31T11:46:53;14.50;84.50
73576;DHT22;61859;49.204;8.140;2023-10-31T11:49:46;14.90;83.80
73576;DHT22;61859;49.204;8.140;2023-10-31T11:52:17;15.20;81.70
73576;DHT22;61859;49.204;8.140;2023-10-31T11:54:43;15.50;80.10
73576;DHT22;61859;49.204;8.140;2023-10-31T11:57:09;15.60;78.40
73576;DHT22;61859;49.204;8.140;2023-10-31T11:59:38;15.60;79.30
73576;DHT22;61859;49.204;8.140;2023-10-31T12:02:16;15.70;79.60
73576;DHT22;61859;49.204;8.140;2023-10-31T12:04:43;16.00;77.70
73576;DHT22;61859;49.204;8.140;2023-10-31T12:07:09;16.20;78.10
73576;DHT22;61859;49.204;8.140;2023-10-31T12:09:48;16.60;76.40
73576;DHT22;61859;49.204;8.140;2023-10-31T12:12:14;16.80;74.40
73576;DHT22;61859;49.204;8.140;2023-10-31T12:14:40;16.80;72.70
73576;DHT22;61859;49.204;8.140;2023-10-31T12:17:06;16.80;75.00
73576;DHT22;61859;49.204;8.140;2023-10-31T12:19:36;17.20;74.70
73576;DHT22;61859;49.204;8.140;2023-10-31T12:22:01;17.70;71.30
73576;DHT22;61859;49.204;8.140;2023-10-31T12:24:28;17.70;70.60
73576;DHT22;61859;49.204;8.140;2023-10-31T12:26:54;17.90;69.70
73576;DHT22;61859;49.204;8.140;2023-10-31T12:29:20;17.50;68.50
73576;DHT22;61859;49.204;8.140;2023-10-31T12:31:53;16.80;71.00
73576;DHT22;61859;49.204;8.140;2023-10-31T12:34:20;16.50;72.00
73576;DHT22;61859;49.204;8.140;2023-10-31T12:36:48;16.20;73.50
73576;DHT22;61859;49.204;8.140;2023-10-31T12:39:14;16.00;75.00
73576;DHT22;61859;49.204;8.140;2023-10-31T12:41:41;15.90;75.00
73576;DHT22;61859;49.204;8.140;2023-10-31T12:44:08;16.20;74.90
73576;DHT22;61859;49.204;8.140;2023-10-31T12:46:39;16.70;73.30
73576;DHT22;61859;49.204;8.140;2023-10-31T12:49:17;17.10;70.90
73576;DHT22;61859;49.204;8.140;2023-10-31T12:52:01;17.30;70.20
73576;DHT22;61859;49.204;8.140;2023-10-31T12:54:33;17.40;71.20
73576;DHT22;61859;49.204;8.140;2023-10-31T12:57:04;17.50;71.10
73576;DHT22;61859;49.204;8.140;2023-10-31T12:59:30;17.30;70.60
73576;DHT22;61859;49.204;8.140;2023-10-31T13:01:56;16.90;72.40
73576;DHT22;61859;49.204;8.140;2023-10-31T13:04:30;16.70;73.10
73576;DHT22;61859;49.204;8.140;2023-10-31T13:07:06;16.40;72.70
73576;DHT22;61859;49.204;8.140;2023-10-31T13:09:36;16.20;74.40
73576;DHT22;61859;49.204;8.140;2023-10-31T13:12:05;16.40;75.10
73576;DHT22;61859;49.204;8.140;2023-10-31T13:14:31;16.60;74.80
73576;DHT22;61859;49.204;8.140;2023-10-31T13:16:57;16.60;74.40
73576;DHT22;61859;49.204;8.140;2023-10-31T13:19:22;16.70;75.60
73576;DHT22;61859;49.204;8.140;2023-10-31T13:21:48;16.60;75.60
73576;DHT22;61859;49.204;8.140;2023-10-31T13:24:14;16.50;75.80
73576;DHT22;61859;49.204;8.140;2023-10-31T13:26:39;16.30;77.20
73576;DHT22;61859;49.204;8.140;2023-10-31T13:29:05;16.20;77.20
73576;DHT22;61859;49.204;8.140;2023-10-31T13:31:31;15.90;78.00
73576;DHT22;61859;49.204;8.140;2023-10-31T13:33:56;15.70;78.90
73576;DHT22;61859;49.204;8.140;2023-10-31T13:36:22;15.50;79.30
73576;DHT22;61859;49.204;8.140;2023-10-31T13:38:47;15.30;80.60
73576;DHT22;61859;49.204;8.140;2023-10-31T13:41:14;15.20;81.50
73576;DHT22;61859;49.204;8.140;2023-10-31T13:43:39;15.20;81.80
73576;DHT22;61859;49.204;8.140;2023-10-31T13:46:05;15.20;82.10
73576;DHT22;61859;49.204;8.140;2023-10-31T13:48:31;15.30;82.10
73576;DHT22;61859;49.204;8.140;2023-10-31T13:50:57;15.30;82.40
73576;DHT22;61859;49.204;8.140;2023-10-31T13:53:22;15.40;81.70
73576;DHT22;61859;49.204;8.140;2023-10-31T13:55:48;15.20;82.80
73576;DHT22;61859;49.204;8.140;2023-10-31T13:58:14;15.20;83.00
73576;DHT22;61859;49.204;8.140;2023-10-31T14:00:39;15.20;82.80
73576;DHT22;61859;49.204;8.140;2023-10-31T14:03:05;15.20;82.80
73576;DHT22;61859;49.204;8.140;2023-10-31T14:05:30;15.10;82.80
73576;DHT22;61859;49.204;8.140;2023-10-31T14:07:56;15.00;83.10
73576;DHT22;61859;49.204;8.140;2023-10-31T14:10:22;15.00;83.50
73576;DHT22;61859;49.204;8.140;2023-10-31T14:12:48;15.00;83.50
73576;DHT22;61859;49.204;8.140;2023-10-31T14:15:14;15.00;84.00
73576;DHT22;61859;49.204;8.140;2023-10-31T14:17:39;15.00;83.30
73576;DHT22;61859;49.204;8.140;2023-10-31T14:20:06;15.00;83.30
73576;DHT22;61859;49.204;8.140;2023-10-31T14:22:31;15.10;83.40
73576;DHT22;61859;49.204;8.140;2023-10-31T14:24:57;15.00;82.90
73576;DHT22;61859;49.204;8.140;2023-10-31T14:27:22;15.00;83.30
73576;DHT22;61859;49.204;8.140;2023-10-31T14:29:48;14.80;83.70
73576;DHT22;61859;49.204;8.140;2023-10-31T14:32:13;14.70;84.20
73576;DHT22;61859;49.204;8.140;2023-10-31T14:34:39;14.60;84.90
73576;DHT22;61859;49.204;8.140;2023-10-31T14:37:04;14.60;85.50
73576;DHT22;61859;49.204;8.140;2023-10-31T14:39:31;14.50;85.40
73576;DHT22;61859;49.204;8.140;2023-10-31T14:41:57;14.40;86.10
73576;DHT22;61859;49.204;8.140;2023-10-31T14:44:23;14.40;86.60
73576;DHT22;61859;49.204;8.140;2023-10-31T14:46:48;14.30;87.30
73576;DHT22;61859;49.204;8.140;2023-10-31T14:49:14;14.20;88.20
73576;DHT22;61859;49.204;8.140;2023-10-31T14:51:39;14.10;88.80
73576;DHT22;61859;49.204;8.140;2023-10-31T14:54:07;14.00;89.10
73576;DHT22;61859;49.204;8.140;2023-10-31T14:56:33;14.00;89.50
73576;DHT22;61859;49.204;8.140;2023-10-31T14:59:00;13.90;89.80
73576;DHT22;61859;49.204;8.140;2023-10-31T15:01:27;14.00;90.40
73576;DHT22;61859;49.204;8.140;2023-10-31T15:03:53;13.80;90.70
73576;DHT22;61859;49.204;8.140;2023-10-31T15:06:20;13.80;91.00
73576;DHT22;61859;49.204;8.140;2023-10-31T15:08:47;13.80;91.10
73576;DHT22;61859;49.204;8.140;2023-10-31T15:11:12;13.70;91.20
73576;DHT22;61859;49.204;8.140;2023-10-31T15:13:38;13.90;91.50
73576;DHT22;61859;49.204;8.140;2023-10-31T15:16:04;13.80;91.80
73576;DHT22;61859;49.204;8.140;2023-10-31T15:18:29;13.70;91.70
73576;DHT22;61859;49.204;8.140;2023-10-31T15:20:55;13.70;92.00
73576;DHT22;61859;49.204;8.140;2023-10-31T15:23:23;13.80;91.90
73576;DHT22;61859;49.204;8.140;2023-10-31T15:25:48;13.70;92.40
73576;DHT22;61859;49.204;8.140;2023-10-31T15:28:14;13.60;93.10